Time;durP1;ratioP1;P1;durP2;ratioP2;P2;SDS_P1;SDS_P2;PMS_P1;PMS_P2;Temp;Humidity;BMP_temperature;BMP_pressure;BME280_temperature;BME280_humidity;BME280_pressure;Samples;Min_cycle;Max_cycle;Signal;HPM_P1;HPM_P2
2021/05/16 00:02:05;;;;;;;8.18;1.83;;;;;;;15.54;66.62;99708.34;5033963;28;20531;-76
2021/05/16 00:05:12;;;;;;;5.15;1.80;;;;;;;15.56;67.10;99701.75;5045017;28;20049;-76
2021/05/16 00:08:16;;;;;;;5.03;1.88;;;;;;;15.53;67.36;99702.09;5035306;28;20053;-76
2021/05/16 00:11:21;;;;;;;3.47;1.80;;;;;;;15.47;68.00;99707.41;5033218;28;20052;-76
2021/05/16 00:14:25;;;;;;;5.18;1.80;;;;;;;15.38;68.21;99708.47;5033564;28;20105;-76
2021/05/16 00:17:29;;;;;;;5.07;1.48;;;;;;;15.27;68.41;99708.88;5034230;28;20435;-76
2021/05/16 00:20:34;;;;;;;6.93;1.70;;;;;;;15.31;68.48;99707.50;5034693;28;20048;-76
2021/05/16 00:23:38;;;;;;;9.52;2.25;;;;;;;15.29;68.88;99709.53;5035022;28;20480;-75
2021/05/16 00:26:42;;;;;;;5.25;1.98;;;;;;;15.31;68.93;99712.91;5033068;28;20048;-76
2021/05/16 00:29:47;;;;;;;4.93;1.92;;;;;;;15.25;69.36;99710.94;5033793;28;20060;-76
2021/05/16 00:32:53;;;;;;;7.72;2.08;;;;;;;15.16;69.21;99699.31;5033227;28;20103;-76
2021/05/16 00:35:58;;;;;;;9.00;2.10;;;;;;;15.06;69.39;99716.81;5045176;28;20048;-75
2021/05/16 00:39:04;;;;;;;5.20;1.65;;;;;;;14.96;69.75;99723.28;5032025;28;20507;-75
2021/05/16 00:42:09;;;;;;;9.52;2.17;;;;;;;14.88;70.39;99709.84;5033101;28;20051;-76
2021/05/16 00:45:19;;;;;;;6.03;2.00;;;;;;;14.87;70.75;99704.59;5033733;28;20048;-76
2021/05/16 00:48:23;;;;;;;5.70;1.90;;;;;;;14.87;69.60;99700.03;5032471;28;20052;-76
2021/05/16 00:51:27;;;;;;;7.00;1.90;;;;;;;14.82;68.33;99694.31;5032044;28;20040;-75
2021/05/16 00:54:32;;;;;;;3.75;1.60;;;;;;;14.91;68.63;99706.75;5033075;28;20041;-76
2021/05/16 00:57:36;;;;;;;5.15;1.75;;;;;;;14.93;69.90;99718.25;5032958;28;20044;-76
2021/05/16 01:00:41;;;;;;;8.02;2.10;;;;;;;14.82;70.29;99702.41;5034218;28;20519;-76
2021/05/16 01:03:53;;;;;;;6.07;1.77;;;;;;;14.85;70.23;99698.53;5032974;28;20044;-76
2021/05/16 01:06:57;;;;;;;4.95;1.65;;;;;;;14.88;70.39;99696.31;5032960;28;20048;-76
2021/05/16 01:10:05;;;;;;;9.10;1.90;;;;;;;14.82;71.73;99679.97;5034014;28;20048;-76
2021/05/16 01:13:11;;;;;;;8.68;2.72;;;;;;;14.77;70.80;99683.19;5032579;28;20036;-76
2021/05/16 01:16:17;;;;;;;7.05;2.00;;;;;;;14.77;71.36;99688.59;5032881;28;20048;-76
2021/05/16 01:19:23;;;;;;;4.75;1.65;;;;;;;14.80;71.52;99699.06;5034104;28;20048;-75
2021/05/16 01:22:27;;;;;;;7.45;2.03;;;;;;;14.81;71.27;99700.72;5031195;28;20056;-75
2021/05/16 01:25:38;;;;;;;6.13;1.83;;;;;;;14.84;71.84;99710.34;5031770;28;20507;-76
2021/05/16 01:28:43;;;;;;;3.72;1.70;;;;;;;14.87;71.38;99699.19;5033935;28;20112;-76
2021/05/16 01:31:49;;;;;;;5.80;2.00;;;;;;;14.92;71.53;99692.22;5032267;28;20056;-76
2021/05/16 01:34:54;;;;;;;6.68;1.92;;;;;;;15.02;71.20;99694.69;5031837;28;20052;-76
2021/05/16 01:37:59;;;;;;;11.85;2.60;;;;;;;15.04;71.16;99708.03;5033244;28;20044;-76
2021/05/16 01:41:04;;;;;;;5.78;1.95;;;;;;;15.04;71.30;99703.47;5032945;28;20052;-76
2021/05/16 01:44:15;;;;;;;7.30;2.08;;;;;;;14.97;71.08;99706.06;5020173;28;20392;-76
2021/05/16 01:47:20;;;;;;;3.95;1.83;;;;;;;14.90;70.87;99699.69;5043912;28;20526;-76
2021/05/16 01:50:29;;;;;;;3.80;1.75;;;;;;;14.82;70.54;99718.63;5033572;28;20036;-76
2021/05/16 01:53:35;;;;;;;6.00;1.83;;;;;;;14.74;70.81;99710.56;5032010;28;20049;-76
2021/05/16 01:56:39;;;;;;;6.55;2.20;;;;;;;14.69;71.16;99717.53;5032777;28;20048;-76
2021/05/16 01:59:44;;;;;;;5.68;2.00;;;;;;;14.58;71.22;99713.34;5033453;28;20052;-76
2021/05/16 02:02:49;;;;;;;5.55;2.28;;;;;;;14.49;71.47;99724.38;5030492;28;20045;-76
2021/05/16 02:06:01;;;;;;;5.75;2.05;;;;;;;14.30;72.66;99723.75;5020086;28;20048;-76
2021/05/16 02:09:05;;;;;;;6.15;2.05;;;;;;;14.27;73.30;99723.22;5033123;28;20048;-76
2021/05/16 02:12:10;;;;;;;7.50;1.95;;;;;;;14.20;73.78;99722.22;5030172;28;20401;-76
2021/05/16 02:15:15;;;;;;;5.55;1.90;;;;;;;14.15;74.12;99708.41;5031581;28;20049;-75
2021/05/16 02:18:20;;;;;;;5.03;1.85;;;;;;;14.14;74.28;99701.34;5032354;28;20053;-76
2021/05/16 02:21:26;;;;;;;6.93;2.20;;;;;;;14.16;74.20;99716.34;5032915;28;20052;-76
2021/05/16 02:24:31;;;;;;;6.28;1.95;;;;;;;14.15;74.11;99708.41;5031139;28;20049;-76
2021/05/16 02:27:50;;;;;;;7.20;1.98;;;;;;;14.18;74.40;99722.41;5030649;28;20044;-76
2021/05/16 02:30:57;;;;;;;6.55;1.90;;;;;;;14.20;74.53;99722.22;5030701;28;20396;-76
2021/05/16 02:34:04;;;;;;;6.35;2.10;;;;;;;14.14;74.83;99710.28;5032338;28;20052;-76
2021/05/16 02:37:09;;;;;;;7.93;2.33;;;;;;;14.12;74.89;99719.56;5040984;28;20036;-76
2021/05/16 02:40:17;;;;;;;7.18;1.98;;;;;;;14.18;74.95;99729.66;5030363;28;20048;-76
2021/05/16 02:43:22;;;;;;;7.20;2.00;;;;;;;14.24;74.85;99731.69;5031619;28;20049;-76
2021/05/16 02:46:28;;;;;;;5.80;2.55;;;;;;;14.34;74.87;99726.97;5031767;28;20064;-76
2021/05/16 02:49:34;;;;;;;7.03;2.13;;;;;;;14.41;74.71;99703.66;5029929;28;20044;-75
2021/05/16 02:52:38;;;;;;;3.88;1.75;;;;;;;14.48;74.48;99692.97;5031464;28;20053;-76
2021/05/16 02:55:43;;;;;;;6.15;2.05;;;;;;;14.34;74.38;99697.25;5031848;28;20396;-75
2021/05/16 02:58:47;;;;;;;4.88;2.17;;;;;;;14.32;74.88;99700.13;5032526;28;20065;-75
2021/05/16 03:01:52;;;;;;;7.13;2.00;;;;;;;14.20;75.84;99714.13;5029479;28;20044;-75
2021/05/16 03:04:58;;;;;;;5.60;1.85;;;;;;;14.12;75.72;99706.06;5030277;28;20052;-75
2021/05/16 03:08:04;;;;;;;5.85;1.80;;;;;;;14.13;74.97;99705.03;5031701;28;20060;-76
2021/05/16 03:11:09;;;;;;;4.10;1.80;;;;;;;14.21;75.38;99702.31;5032323;28;20109;-76
2021/05/16 03:14:16;;;;;;;6.00;2.05;;;;;;;14.08;74.49;99692.06;5030613;28;20112;-76
2021/05/16 03:17:21;;;;;;;4.00;1.85;;;;;;;14.01;75.76;99690.25;5031202;28;20048;-76
2021/05/16 03:20:25;;;;;;;8.40;2.00;;;;;;;13.96;75.17;99681.81;5031762;28;20052;-76
2021/05/16 03:23:30;;;;;;;9.20;2.70;;;;;;;13.81;75.71;99675.44;5031798;28;20044;-75
2021/05/16 03:26:35;;;;;;;7.10;2.20;;;;;;;13.65;76.44;99662.84;5029803;28;20500;-75
2021/05/16 03:29:39;;;;;;;4.93;2.08;;;;;;;13.66;76.62;99670.75;5030878;28;20048;-75
2021/05/16 03:32:44;;;;;;;6.28;2.13;;;;;;;13.63;77.18;99676.47;5031529;28;20048;-75
2021/05/16 03:35:49;;;;;;;6.40;2.40;;;;;;;13.55;77.30;99695.34;5031843;28;20053;-76
2021/05/16 03:38:54;;;;;;;7.05;1.80;;;;;;;13.52;77.34;99698.41;5032802;28;20048;-75
2021/05/16 03:41:58;;;;;;;9.10;2.40;;;;;;;13.43;78.10;99682.41;5029381;28;20049;-75
2021/05/16 03:45:04;;;;;;;6.65;2.28;;;;;;;13.45;78.66;99693.88;5029991;28;20052;-75
2021/05/16 03:48:08;;;;;;;11.00;2.22;;;;;;;13.56;78.01;99707.00;5031911;28;20041;-75
2021/05/16 03:51:12;;;;;;;6.00;2.30;;;;;;;13.64;78.05;99705.16;5045759;28;20053;-75
2021/05/16 03:54:17;;;;;;;5.95;2.10;;;;;;;13.69;78.08;99713.56;5033538;28;20053;-75
2021/05/16 03:57:24;;;;;;;7.95;2.50;;;;;;;13.73;77.73;99718.63;5033986;28;20044;-76
2021/05/16 04:00:29;;;;;;;4.65;2.00;;;;;;;13.74;77.79;99729.25;5034855;28;20052;-75
2021/05/16 04:03:33;;;;;;;6.07;2.15;;;;;;;13.86;77.32;99727.03;5035487;28;20424;-75
2021/05/16 04:06:37;;;;;;;6.22;2.65;;;;;;;13.92;76.59;99735.31;5033370;28;20056;-75
2021/05/16 04:09:42;;;;;;;7.43;2.78;;;;;;;13.90;76.71;99725.69;5033811;28;20036;-76
2021/05/16 04:12:46;;;;;;;6.10;2.08;;;;;;;13.90;76.86;99733.78;5033793;28;20049;-76
2021/05/16 04:15:32;;;;;;;4.53;1.90;;;;;;;13.91;76.79;99727.34;5041505;28;20401;-76
2021/05/16 04:18:38;;;;;;;5.60;2.25;;;;;;;14.00;76.57;99740.66;5035425;28;20044;-75
2021/05/16 04:21:43;;;;;;;8.48;2.10;;;;;;;14.02;76.37;99722.44;5033771;28;20044;-75
2021/05/16 04:24:47;;;;;;;17.83;3.15;;;;;;;14.19;76.43;99724.09;5034047;28;20492;-75
2021/05/16 04:27:51;;;;;;;4.82;2.17;;;;;;;14.33;76.11;99723.41;5034488;28;20057;-75
2021/05/16 04:30:55;;;;;;;7.63;2.30;;;;;;;14.46;75.47;99717.47;5034988;28;20045;-76
2021/05/16 04:34:00;;;;;;;8.05;2.20;;;;;;;14.57;75.39;99717.06;5032867;28;20053;-76
2021/05/16 04:37:05;;;;;;;5.80;2.25;;;;;;;14.61;75.17;99731.91;5032508;28;20048;-76
2021/05/16 04:40:09;;;;;;;5.18;2.38;;;;;;;14.70;74.96;99736.25;5034059;28;20511;-76
2021/05/16 04:43:14;;;;;;;6.45;2.33;;;;;;;14.79;74.78;99740.59;5033272;28;20061;-75
2021/05/16 04:46:18;;;;;;;5.63;2.67;;;;;;;14.82;74.62;99755.59;5034774;28;20053;-76
2021/05/16 04:49:23;;;;;;;8.63;2.50;;;;;;;14.89;74.13;99770.09;5032709;28;20507;-76
2021/05/16 04:52:10;;;;;;;11.13;3.15;;;;;;;14.93;74.33;99784.97;5040092;28;20056;-76
2021/05/16 04:55:15;;;;;;;9.65;3.88;;;;;;;14.85;74.40;99776.88;5033974;28;20060;-75
2021/05/16 04:58:19;;;;;;;6.65;3.70;;;;;;;14.76;74.39;99764.44;5034416;28;20048;-76
2021/05/16 05:01:24;;;;;;;9.18;3.63;;;;;;;14.69;74.62;99769.69;5032471;28;20053;-76
2021/05/16 05:04:28;;;;;;;10.57;4.22;;;;;;;14.53;75.36;99772.47;5033430;28;20060;-75
2021/05/16 05:07:33;;;;;;;6.90;4.25;;;;;;;14.48;75.28;99777.53;5033968;28;20056;-75
2021/05/16 05:10:38;;;;;;;9.10;4.40;;;;;;;14.52;75.35;99792.38;5031024;28;20049;-75
2021/05/16 05:13:42;;;;;;;11.02;3.78;;;;;;;14.56;75.26;99790.16;5015610;28;20044;-75
2021/05/16 05:16:46;;;;;;;6.78;3.90;;;;;;;14.57;75.79;99800.78;5026426;28;20049;-79
2021/05/16 05:19:50;;;;;;;6.60;3.40;;;;;;;14.53;76.27;99799.47;5035285;28;20044;-81
2021/05/16 05:22:55;;;;;;;8.00;3.60;;;;;;;14.47;76.28;99794.75;5035329;28;20057;-78
2021/05/16 05:25:59;;;;;;;7.97;3.80;;;;;;;14.44;76.66;99789.72;5033379;28;20049;-75
2021/05/16 05:29:04;;;;;;;5.90;3.58;;;;;;;14.32;76.96;99786.50;5032797;28;20044;-75
2021/05/16 05:32:10;;;;;;;7.38;3.60;;;;;;;14.48;76.97;99791.03;5031198;28;20083;-80
2021/05/16 05:35:14;;;;;;;9.65;4.15;;;;;;;14.54;76.60;99763.31;5029792;28;20044;-77
2021/05/16 05:38:20;;;;;;;8.13;4.30;;;;;;;14.53;77.26;99744.59;5023277;28;20061;-79
2021/05/16 05:41:24;;;;;;;7.55;4.22;;;;;;;14.53;77.07;99737.34;5033701;28;20068;-76
2021/05/16 05:44:29;;;;;;;6.22;4.88;;;;;;;14.62;77.14;99754.34;5033777;28;20044;-78
2021/05/16 05:47:35;;;;;;;6.90;4.00;;;;;;;14.83;76.66;99768.13;5026261;28;20052;-79
2021/05/16 05:50:41;;;;;;;8.15;4.13;;;;;;;14.89;76.27;99768.25;5015992;28;20382;-76
2021/05/16 05:53:45;;;;;;;7.63;4.18;;;;;;;14.93;75.68;99764.19;5032161;28;20503;-75
2021/05/16 05:56:49;;;;;;;7.80;3.95;;;;;;;15.10;75.51;99764.09;5033704;28;20056;-75
2021/05/16 05:59:54;;;;;;;8.50;4.25;;;;;;;15.29;75.03;99775.28;5030947;28;20056;-75
2021/05/16 06:03:00;;;;;;;6.05;3.70;;;;;;;15.53;74.53;99772.44;5031794;28;20060;-76
2021/05/16 06:06:04;;;;;;;9.98;3.80;;;;;;;15.57;73.86;99762.09;5031751;28;20056;-76
2021/05/16 06:09:08;;;;;;;6.40;4.10;;;;;;;15.69;74.32;99757.94;5031995;28;20068;-76
2021/05/16 06:12:14;;;;;;;8.40;4.13;;;;;;;16.18;73.30;99761.03;5031371;28;20060;-76
2021/05/16 06:15:19;;;;;;;8.02;4.25;;;;;;;16.63;70.95;99752.78;5020778;28;20046;-75
2021/05/16 06:18:24;;;;;;;5.00;3.22;;;;;;;16.91;70.11;99758.38;5034413;28;20056;-76
2021/05/16 06:21:28;;;;;;;7.25;4.22;;;;;;;17.03;69.66;99767.69;5034103;28;20120;-75
2021/05/16 06:24:33;;;;;;;9.48;4.93;;;;;;;16.86;69.93;99768.94;5034054;28;20048;-76
2021/05/16 06:27:37;;;;;;;9.00;4.13;;;;;;;16.87;70.42;99757.03;5033881;28;20052;-75
2021/05/16 06:30:41;;;;;;;10.27;3.90;;;;;;;16.87;69.42;99757.03;5034075;28;20068;-76
2021/05/16 06:33:46;;;;;;;5.22;3.67;;;;;;;16.88;70.06;99759.59;5034000;28;20384;-74
2021/05/16 06:36:50;;;;;;;6.22;4.28;;;;;;;17.02;70.01;99754.31;5033386;28;20056;-76
2021/05/16 06:39:55;;;;;;;6.07;4.00;;;;;;;17.11;69.17;99772.16;5033992;28;20052;-76
2021/05/16 06:43:01;;;;;;;10.10;4.43;;;;;;;17.14;68.22;99777.19;5033307;28;20065;-76
2021/05/16 06:46:05;;;;;;;6.75;4.13;;;;;;;17.29;68.41;99770.69;5033735;28;20061;-75
2021/05/16 06:49:09;;;;;;;9.68;4.38;;;;;;;17.31;67.44;99767.78;5033819;28;20052;-75
2021/05/16 06:52:14;;;;;;;9.23;3.78;;;;;;;17.45;67.41;99778.56;5033679;28;20060;-75
2021/05/16 06:55:18;;;;;;;5.93;4.35;;;;;;;17.54;66.88;99780.19;5033730;28;20488;-75
2021/05/16 06:58:23;;;;;;;8.13;4.30;;;;;;;17.61;66.76;99772.09;5033612;28;20052;-75
2021/05/16 07:01:27;;;;;;;7.82;4.38;;;;;;;17.74;67.09;99779.53;5032957;28;20064;-75
2021/05/16 07:04:32;;;;;;;20.13;15.55;;;;;;;17.83;66.81;99770.22;5032761;28;20373;-75
2021/05/16 07:07:36;;;;;;;59.20;51.88;;;;;;;17.78;66.37;99764.53;5033846;28;20052;-75
2021/05/16 07:10:40;;;;;;;11.38;5.63;;;;;;;17.73;65.29;99769.69;5033661;28;20064;-75
2021/05/16 07:13:45;;;;;;;8.05;4.03;;;;;;;17.74;65.11;99772.25;5033619;28;20044;-75
2021/05/16 07:16:50;;;;;;;9.77;4.30;;;;;;;17.82;64.32;99765.84;5032765;28;20052;-75
2021/05/16 07:19:54;;;;;;;6.18;3.65;;;;;;;17.91;64.61;99773.66;5033491;28;20041;-76
2021/05/16 07:22:58;;;;;;;7.22;3.80;;;;;;;18.06;64.45;99774.41;5032558;28;20044;-75
2021/05/16 07:26:03;;;;;;;6.53;4.22;;;;;;;18.20;63.77;99780.75;5036128;28;20052;-77
2021/05/16 07:29:08;;;;;;;6.15;4.18;;;;;;;18.28;63.21;99791.50;5025049;28;20044;-77
2021/05/16 07:32:13;;;;;;;6.10;3.58;;;;;;;18.23;62.13;99793.97;5037073;28;20056;-76
2021/05/16 07:35:17;;;;;;;9.15;4.35;;;;;;;18.10;63.65;99788.41;5036303;28;20049;-76
2021/05/16 07:38:22;;;;;;;11.07;5.20;;;;;;;17.98;63.86;99787.25;5036973;28;20048;-75
2021/05/16 07:41:27;;;;;;;17.67;14.63;;;;;;;17.91;64.72;99792.66;5036222;28;20049;-75
2021/05/16 07:44:31;;;;;;;13.73;8.77;;;;;;;17.85;64.46;99814.31;5037023;28;20105;-76
2021/05/16 07:47:37;;;;;;;11.73;6.55;;;;;;;17.80;64.02;99805.91;5037692;28;20060;-76
2021/05/16 07:50:43;;;;;;;8.82;4.35;;;;;;;17.77;63.78;99792.72;5036778;28;20052;-76
2021/05/16 07:53:47;;;;;;;6.63;3.50;;;;;;;17.77;63.32;99781.88;5036852;28;20054;-76
2021/05/16 07:56:52;;;;;;;7.35;3.55;;;;;;;17.82;63.30;99774.81;5036839;28;20057;-76
2021/05/16 07:59:56;;;;;;;5.43;3.42;;;;;;;17.91;62.91;99778.22;5036061;28;20044;-76
2021/05/16 08:03:01;;;;;;;8.52;3.80;;;;;;;18.00;62.50;99768.91;5036686;28;20060;-76
2021/05/16 08:06:06;;;;;;;8.30;4.18;;;;;;;18.07;62.59;99761.66;5036581;28;20060;-76
2021/05/16 08:09:10;;;;;;;6.43;3.78;;;;;;;18.21;62.13;99758.00;5036667;28;20197;-76
2021/05/16 08:12:15;;;;;;;7.78;3.75;;;;;;;18.33;62.35;99761.00;5036575;28;20053;-76
2021/05/16 08:15:20;;;;;;;6.97;3.40;;;;;;;18.35;62.63;99764.34;5035701;28;20056;-76
2021/05/16 08:18:25;;;;;;;5.38;3.53;;;;;;;18.38;62.64;99758.53;5036582;28;20068;-76
2021/05/16 08:21:30;;;;;;;6.72;3.72;;;;;;;18.49;62.62;99745.25;5046577;28;20397;-76
2021/05/16 08:24:34;;;;;;;8.27;3.85;;;;;;;18.55;61.99;99747.16;5035576;28;20120;-76
2021/05/16 08:27:39;;;;;;;5.63;3.60;;;;;;;18.63;60.97;99755.19;5036054;28;20049;-76
2021/05/16 08:30:44;;;;;;;11.73;4.55;;;;;;;18.47;61.53;99769.06;5046835;28;20112;-76
2021/05/16 08:33:48;;;;;;;10.80;4.20;;;;;;;18.37;62.10;99779.41;5036147;28;20056;-76
2021/05/16 08:36:53;;;;;;;6.55;4.22;;;;;;;18.27;62.20;99787.09;5035722;28;20423;-76
2021/05/16 08:39:57;;;;;;;6.75;4.15;;;;;;;18.16;62.47;99796.63;5036049;28;20388;-76
2021/05/16 08:43:04;;;;;;;8.75;4.65;;;;;;;18.14;63.28;99789.72;5035394;28;20060;-76
2021/05/16 08:46:09;;;;;;;6.00;4.18;;;;;;;18.12;63.66;99799.94;5035583;28;20060;-76
2021/05/16 08:49:13;;;;;;;6.88;3.90;;;;;;;18.14;63.93;99806.00;5035236;28;20052;-76
2021/05/16 08:52:18;;;;;;;8.88;3.72;;;;;;;18.19;64.13;99806.25;5035663;28;20068;-76
2021/05/16 08:55:22;;;;;;;7.72;4.38;;;;;;;18.17;64.72;99808.34;5035741;28;20048;-76
2021/05/16 08:58:27;;;;;;;6.68;3.40;;;;;;;18.14;64.31;99814.16;5035644;28;20041;-76
2021/05/16 09:01:38;;;;;;;6.35;3.92;;;;;;;18.12;63.88;99802.66;5035777;28;20053;-76
2021/05/16 09:04:42;;;;;;;8.45;4.55;;;;;;;18.16;64.46;99799.34;5035585;28;20048;-76
2021/05/16 09:07:47;;;;;;;7.40;3.70;;;;;;;18.20;64.48;99794.34;5035471;28;20068;-76
2021/05/16 09:11:00;;;;;;;7.10;3.88;;;;;;;18.13;64.85;99790.75;5035590;28;20044;-76
2021/05/16 09:14:04;;;;;;;8.23;3.88;;;;;;;18.14;65.26;99792.44;5035486;28;20044;-76
2021/05/16 09:17:30;;;;;;;9.05;5.05;;;;;;;18.16;64.33;99793.06;5035369;28;20052;-76
2021/05/16 09:20:35;;;;;;;9.70;5.40;;;;;;;18.04;65.28;99794.66;5034523;28;20048;-76
2021/05/16 09:23:39;;;;;;;7.90;5.03;;;;;;;18.03;64.65;99795.66;5034458;28;20052;-75
2021/05/16 09:26:58;;;;;;;6.82;3.95;;;;;;;17.95;64.25;99795.78;5035079;28;20423;-75
2021/05/16 09:30:23;;;;;;;6.40;4.43;;;;;;;17.98;63.99;99782.69;5035419;28;20048;-75
2021/05/16 09:33:27;;;;;;;8.57;3.90;;;;;;;18.14;64.33;99785.13;5034759;28;20215;-75
2021/05/16 09:36:36;;;;;;;6.15;3.97;;;;;;;18.48;63.76;99787.06;5033899;28;20056;-75
2021/05/16 09:39:45;;;;;;;7.90;3.95;;;;;;;18.84;62.95;99782.25;5034431;28;20053;-75
2021/05/16 09:43:32;;;;;;;6.15;3.60;;;;;;;18.98;61.94;99787.75;5033127;28;20147;-75
2021/05/16 09:46:36;;;;;;;7.95;3.83;;;;;;;19.16;61.42;99797.03;5020744;28;20059;-76
2021/05/16 09:49:49;;;;;;;8.75;3.83;;;;;;;19.10;60.95;99794.31;5031764;28;20467;-75
2021/05/16 09:53:00;;;;;;;8.45;4.60;;;;;;;18.89;62.42;99795.25;5020643;28;20141;-76
2021/05/16 09:56:19;;;;;;;6.70;3.88;;;;;;;18.86;62.31;99795.66;5031855;28;20145;-76
2021/05/16 09:59:24;;;;;;;9.32;3.92;;;;;;;18.80;62.83;99789.16;5031864;28;20060;-76
2021/05/16 10:02:29;;;;;;;6.57;3.88;;;;;;;18.65;63.31;99795.75;5031840;28;20045;-75
2021/05/16 10:05:33;;;;;;;7.95;4.03;;;;;;;18.59;64.47;99805.53;5031836;28;20145;-75
2021/05/16 10:08:37;;;;;;;7.93;3.75;;;;;;;18.46;64.55;99791.88;5031945;28;20036;-76
2021/05/16 10:11:42;;;;;;;8.50;4.22;;;;;;;18.43;64.82;99794.94;5031648;28;20113;-75
2021/05/16 10:14:51;;;;;;;12.80;4.32;;;;;;;18.44;63.80;99798.50;5031627;28;20059;-75
2021/05/16 10:17:57;;;;;;;8.85;4.68;;;;;;;18.36;64.49;99804.09;5020436;28;20053;-76
2021/05/16 10:21:05;;;;;;;10.88;4.40;;;;;;;18.42;63.67;99801.41;5033546;28;20052;-76
2021/05/16 10:24:15;;;;;;;8.50;4.57;;;;;;;18.48;64.17;99797.94;5032818;28;20057;-76
2021/05/16 10:27:26;;;;;;;8.05;4.97;;;;;;;18.65;64.32;99790.31;5033609;28;20056;-75
2021/05/16 10:30:30;;;;;;;7.82;5.20;;;;;;;18.78;64.48;99787.66;5033583;28;20072;-75
2021/05/16 10:33:39;;;;;;;9.20;5.00;;;;;;;18.92;63.92;99794.00;5033461;28;20052;-76
2021/05/16 10:36:44;;;;;;;6.82;4.30;;;;;;;18.80;63.38;99791.88;5033475;28;20053;-76
2021/05/16 10:39:49;;;;;;;8.25;4.88;;;;;;;18.94;63.54;99789.19;5043717;28;20052;-76
2021/05/16 10:43:04;;;;;;;9.93;4.72;;;;;;;18.87;64.20;99791.03;5032848;28;20072;-75
2021/05/16 10:46:43;;;;;;;10.60;5.28;;;;;;;18.88;62.92;99785.41;5033191;28;20496;-76
2021/05/16 10:49:53;;;;;;;8.68;5.00;;;;;;;18.91;63.67;99787.75;5033096;28;20379;-76
2021/05/16 10:53:19;;;;;;;6.32;5.10;;;;;;;18.76;65.14;99787.84;5033199;28;20381;-76
2021/05/16 10:56:23;;;;;;;7.85;5.55;;;;;;;18.63;65.96;99779.63;5033128;28;20048;-76
2021/05/16 10:59:38;;;;;;;9.00;6.38;;;;;;;18.54;66.07;99769.94;5035181;28;20044;-75
2021/05/16 11:03:10;;;;;;;11.02;6.03;;;;;;;18.59;66.09;99769.38;5036228;28;20052;-76
2021/05/16 11:06:17;;;;;;;8.35;5.90;;;;;;;18.73;66.49;99768.41;5037299;28;20060;-76
2021/05/16 11:09:25;;;;;;;6.70;5.50;;;;;;;18.80;66.28;99763.81;5036822;28;20057;-75
2021/05/16 11:12:30;;;;;;;7.88;5.65;;;;;;;18.84;66.55;99759.66;5037598;28;20057;-76
2021/05/16 11:15:34;;;;;;;7.65;5.63;;;;;;;19.06;66.10;99763.13;5037233;28;20053;-75
2021/05/16 11:18:39;;;;;;;18.88;7.15;;;;;;;19.07;65.46;99753.91;5037568;28;20056;-76
2021/05/16 11:21:43;;;;;;;7.55;6.50;;;;;;;19.10;65.04;99753.50;5037437;28;20053;-76
2021/05/16 11:24:49;;;;;;;11.43;6.30;;;;;;;19.06;65.21;99752.22;5037384;28;20599;-75
2021/05/16 11:27:53;;;;;;;10.15;7.38;;;;;;;19.28;64.32;99749.13;5037221;28;20057;-75
2021/05/16 11:30:58;;;;;;;11.68;6.30;;;;;;;19.48;63.33;99751.13;5037170;28;20070;-76
2021/05/16 11:34:05;;;;;;;10.07;6.78;;;;;;;19.67;63.85;99748.44;5037130;28;20053;-76
2021/05/16 11:37:19;;;;;;;8.23;5.47;;;;;;;19.80;61.93;99742.16;5036228;28;20045;-75
2021/05/16 11:40:37;;;;;;;8.65;5.10;;;;;;;19.76;61.67;99749.91;5037044;28;20384;-75
2021/05/16 11:43:43;;;;;;;7.25;5.30;;;;;;;19.83;62.26;99752.63;5035463;28;20229;-75
2021/05/16 11:46:49;;;;;;;9.63;6.35;;;;;;;19.71;61.65;99751.56;5036864;28;20492;-76
2021/05/16 11:49:53;;;;;;;9.82;5.47;;;;;;;19.75;61.97;99752.84;5036144;28;20052;-75
2021/05/16 11:53:00;;;;;;;11.77;5.90;;;;;;;19.55;61.95;99752.81;5036809;28;20053;-75
2021/05/16 11:56:09;;;;;;;12.10;5.80;;;;;;;19.62;61.76;99750.94;5036758;28;20060;-75
2021/05/16 11:59:13;;;;;;;6.55;4.90;;;;;;;19.70;62.04;99748.00;5036751;28;20052;-76
2021/05/16 12:02:17;;;;;;;11.55;5.35;;;;;;;19.67;62.57;99742.16;5036687;28;20056;-75
2021/05/16 12:05:25;;;;;;;10.18;5.70;;;;;;;19.63;64.09;99741.72;5036365;28;20052;-75
2021/05/16 12:08:30;;;;;;;9.35;5.63;;;;;;;19.78;64.20;99736.91;5035756;28;20389;-75
2021/05/16 12:11:35;;;;;;;9.93;5.70;;;;;;;19.75;64.81;99734.59;5035737;28;20060;-75
2021/05/16 12:14:43;;;;;;;13.70;6.60;;;;;;;19.65;64.96;99734.19;5036521;28;20068;-76
2021/05/16 12:17:47;;;;;;;9.98;7.10;;;;;;;19.50;65.11;99736.25;5036401;28;20052;-76
2021/05/16 12:21:02;;;;;;;7.07;6.18;;;;;;;19.46;64.95;99729.53;5036316;28;20049;-76
2021/05/16 12:24:10;;;;;;;7.97;5.57;;;;;;;19.46;65.48;99715.94;5035537;28;20372;-76
2021/05/16 12:27:17;;;;;;;9.88;6.00;;;;;;;19.61;65.43;99713.00;5036190;28;20056;-76
2021/05/16 12:30:21;;;;;;;7.35;5.80;;;;;;;19.81;65.34;99705.69;5035949;28;20061;-76
2021/05/16 12:33:26;;;;;;;10.00;5.53;;;;;;;19.91;64.99;99692.50;5036156;28;20056;-76
2021/05/16 12:36:45;;;;;;;9.63;5.47;;;;;;;19.85;63.96;99685.19;5036233;28;20053;-76
2021/05/16 12:39:52;;;;;;;6.80;5.80;;;;;;;19.66;63.59;99681.38;5036199;28;20056;-76
2021/05/16 12:43:05;;;;;;;12.13;6.65;;;;;;;19.53;63.84;99673.22;5035504;28;20056;-76
2021/05/16 12:46:10;;;;;;;12.95;6.38;;;;;;;19.59;64.20;99664.22;5035763;28;20053;-76
2021/05/16 12:49:19;;;;;;;8.98;6.53;;;;;;;19.56;64.24;99667.34;5035959;28;20500;-76
2021/05/16 12:52:24;;;;;;;7.93;6.63;;;;;;;19.60;64.21;99668.63;5035795;28;20052;-75
2021/05/16 12:55:28;;;;;;;12.20;6.95;;;;;;;19.54;64.73;99671.34;5035804;28;20048;-76
2021/05/16 12:58:36;;;;;;;11.63;6.68;;;;;;;19.55;65.05;99662.13;5034652;28;20064;-76
2021/05/16 13:01:42;;;;;;;10.63;6.60;;;;;;;19.58;65.05;99667.97;5035714;28;20044;-76
2021/05/16 13:04:51;;;;;;;7.75;6.47;;;;;;;19.64;65.00;99660.88;5035631;28;20056;-75
2021/05/16 13:07:56;;;;;;;14.15;6.97;;;;;;;19.70;65.04;99657.31;5034676;28;20072;-76
2021/05/16 13:11:02;;;;;;;10.30;6.72;;;;;;;19.89;64.92;99657.28;5035449;28;20049;-75
2021/05/16 13:14:06;;;;;;;9.70;6.45;;;;;;;20.20;64.51;99653.88;5035331;28;20073;-76
2021/05/16 13:17:19;;;;;;;14.52;7.00;;;;;;;20.52;63.16;99652.97;5035356;28;20052;-76
2021/05/16 13:20:27;;;;;;;9.32;6.88;;;;;;;20.65;62.56;99646.63;5035068;28;20048;-76
2021/05/16 13:23:32;;;;;;;11.82;6.97;;;;;;;20.75;62.46;99647.00;5033431;28;20056;-76
2021/05/16 13:26:47;;;;;;;10.98;7.68;;;;;;;21.03;62.95;99650.22;5035053;28;20053;-76
2021/05/16 13:29:57;;;;;;;12.52;7.30;;;;;;;20.92;62.51;99650.88;5035098;28;20584;-76
2021/05/16 13:33:11;;;;;;;9.07;6.78;;;;;;;20.88;62.23;99644.22;5035001;28;20544;-76
2021/05/16 13:36:17;;;;;;;10.93;7.35;;;;;;;20.81;63.41;99642.56;5034982;28;20064;-76
2021/05/16 13:39:23;;;;;;;14.52;7.30;;;;;;;20.91;63.17;99638.28;5034983;28;20381;-76
2021/05/16 13:42:27;;;;;;;12.27;6.78;;;;;;;20.79;63.22;99641.94;5034528;28;20048;-76
2021/05/16 13:45:33;;;;;;;13.70;6.45;;;;;;;20.99;62.81;99627.13;5034750;28;20052;-76
2021/05/16 13:48:38;;;;;;;9.93;7.43;;;;;;;21.13;62.70;99628.75;5034466;28;20049;-76
2021/05/16 13:51:42;;;;;;;13.95;7.32;;;;;;;20.88;63.08;99633.28;5034456;28;20420;-75
2021/05/16 13:54:47;;;;;;;12.95;7.25;;;;;;;21.01;63.02;99635.91;5034120;28;20056;-76
2021/05/16 13:57:51;;;;;;;10.93;7.28;;;;;;;21.14;62.80;99640.50;5034610;28;20060;-76
2021/05/16 14:00:55;;;;;;;9.77;6.55;;;;;;;21.09;62.86;99638.44;5034470;28;20049;-76
2021/05/16 14:04:00;;;;;;;9.73;6.75;;;;;;;21.19;62.98;99635.22;5034549;28;20384;-76
2021/05/16 14:07:04;;;;;;;8.70;6.13;;;;;;;21.19;62.49;99624.28;5034375;28;20057;-76
2021/05/16 14:10:09;;;;;;;11.00;7.30;;;;;;;21.13;62.98;99634.19;5034484;28;20056;-76
2021/05/16 14:13:14;;;;;;;11.80;7.60;;;;;;;20.99;64.22;99615.38;5034398;28;20057;-76
2021/05/16 14:16:18;;;;;;;11.75;7.05;;;;;;;20.80;64.00;99617.16;5034305;28;20056;-76
2021/05/16 14:19:22;;;;;;;9.93;7.57;;;;;;;20.87;64.34;99626.16;5034561;28;20056;-76
2021/05/16 14:22:27;;;;;;;8.77;7.72;;;;;;;20.99;64.18;99615.38;5033523;28;20048;-76
2021/05/16 14:25:31;;;;;;;11.50;8.35;;;;;;;20.59;65.09;99634.69;5034279;28;20072;-76
2021/05/16 14:28:35;;;;;;;9.15;7.93;;;;;;;20.76;64.78;99632.31;5034184;28;20045;-76
2021/05/16 14:31:40;;;;;;;11.52;8.75;;;;;;;20.57;64.71;99641.41;5034156;28;20060;-76
2021/05/16 14:34:44;;;;;;;10.30;8.15;;;;;;;20.56;65.35;99628.84;5033684;28;20052;-76